sensor_id;sensor_type;location;lat;lon;timestamp;pressure;altitude;pressure_sealevel;temperature;humidity
12973;BME280;6551;51.056;9.466;2023-04-01T00:01:07;95705.75;;;12.52;76.17
12973;BME280;6551;51.056;9.466;2023-04-01T00:03:35;95698.72;;;12.66;76.27
12973;BME280;6551;51.056;9.466;2023-04-01T00:06:01;95703.94;;;12.48;75.90
12973;BME280;6551;51.056;9.466;2023-04-01T00:08:28;95696.03;;;12.66;75.93
12973;BME280;6551;51.056;9.466;2023-04-01T00:10:54;95700.31;;;12.67;76.02
12973;BME280;6551;51.056;9.466;2023-04-01T00:13:21;95690.34;;;12.78;76.05
12973;BME280;6551;51.056;9.466;2023-04-01T00:15:49;95694.50;;;12.89;75.49
12973;BME280;6551;51.056;9.466;2023-04-01T00:18:17;95695.94;;;12.81;75.98
12973;BME280;6551;51.056;9.466;2023-04-01T00:20:48;95696.69;;;12.87;75.58
12973;BME280;6551;51.056;9.466;2023-04-01T00:23:16;95703.00;;;12.28;77.26
12973;BME280;6551;51.056;9.466;2023-04-01T00:25:44;95690.88;;;12.07;78.65
12973;BME280;6551;51.056;9.466;2023-04-01T00:28:12;95696.06;;;11.84;78.92
12973;BME280;6551;51.056;9.466;2023-04-01T00:30:39;95689.44;;;12.20;78.61
12973;BME280;6551;51.056;9.466;2023-04-01T00:33:06;95700.72;;;12.12;78.66
12973;BME280;6551;51.056;9.466;2023-04-01T00:35:31;95700.41;;;12.18;78.47
12973;BME280;6551;51.056;9.466;2023-04-01T00:37:58;95689.69;;;12.23;78.35
12973;BME280;6551;51.056;9.466;2023-04-01T00:40:34;95685.38;;;11.89;79.17
12973;BME280;6551;51.056;9.466;2023-04-01T00:43:03;95695.38;;;12.12;79.20
12973;BME280;6551;51.056;9.466;2023-04-01T00:45:42;95692.88;;;12.25;79.11
12973;BME280;6551;51.056;9.466;2023-04-01T00:48:36;95705.16;;;12.26;78.47
12973;BME280;6551;51.056;9.466;2023-04-01T00:51:16;95700.25;;;12.00;79.61
12973;BME280;6551;51.056;9.466;2023-04-01T00:53:50;95682.59;;;12.09;79.39
12973;BME280;6551;51.056;9.466;2023-04-01T00:56:27;95696.88;;;11.84;80.35
12973;BME280;6551;51.056;9.466;2023-04-01T00:59:04;95692.06;;;11.86;81.34
12973;BME280;6551;51.056;9.466;2023-04-01T01:01:35;95695.69;;;12.05;80.05
12973;BME280;6551;51.056;9.466;2023-04-01T01:04:01;95698.38;;;12.00;80.05
12973;BME280;6551;51.056;9.466;2023-04-01T01:07:00;95702.69;;;11.96;80.30
12973;BME280;6551;51.056;9.466;2023-04-01T01:09:47;95699.25;;;11.86;80.96
12973;BME280;6551;51.056;9.466;2023-04-01T01:21:05;95685.50;;;11.58;81.03
12973;BME280;6551;51.056;9.466;2023-04-01T01:26:59;95676.81;;;11.92;80.11
12973;BME280;6551;51.056;9.466;2023-04-01T01:33:13;95674.78;;;11.63;81.40
12973;BME280;6551;51.056;9.466;2023-04-01T01:35:52;95653.78;;;11.57;81.04
12973;BME280;6551;51.056;9.466;2023-04-01T01:38:28;95667.06;;;11.72;80.44
12973;BME280;6551;51.056;9.466;2023-04-01T01:40:57;95675.00;;;11.87;80.10
12973;BME280;6551;51.056;9.466;2023-04-01T01:43:49;95664.56;;;11.86;79.90
12973;BME280;6551;51.056;9.466;2023-04-01T01:46:22;95670.25;;;11.69;80.30
12973;BME280;6551;51.056;9.466;2023-04-01T01:48:51;95664.94;;;11.69;80.27
12973;BME280;6551;51.056;9.466;2023-04-01T01:51:20;95661.41;;;11.84;80.02
12973;BME280;6551;51.056;9.466;2023-04-01T01:53:46;95680.38;;;11.67;79.64
12973;BME280;6551;51.056;9.466;2023-04-01T01:56:12;95677.38;;;11.89;79.57
12973;BME280;6551;51.056;9.466;2023-04-01T01:58:49;95664.22;;;12.02;78.73
12973;BME280;6551;51.056;9.466;2023-04-01T02:01:29;95673.56;;;12.00;79.06
12973;BME280;6551;51.056;9.466;2023-04-01T02:03:58;95671.28;;;11.78;79.10
12973;BME280;6551;51.056;9.466;2023-04-01T02:06:27;95662.69;;;11.91;78.97
12973;BME280;6551;51.056;9.466;2023-04-01T02:09:03;95664.03;;;11.94;78.88
12973;BME280;6551;51.056;9.466;2023-04-01T02:11:58;95658.94;;;11.92;78.78
12973;BME280;6551;51.056;9.466;2023-04-01T02:15:14;95660.00;;;11.96;78.83
12973;BME280;6551;51.056;9.466;2023-04-01T02:17:34;95674.28;;;11.71;79.18
12973;BME280;6551;51.056;9.466;2023-04-01T02:20:24;95675.25;;;11.91;79.32
12973;BME280;6551;51.056;9.466;2023-04-01T02:22:54;95677.91;;;11.86;79.56
12973;BME280;6551;51.056;9.466;2023-04-01T02:25:33;95681.66;;;11.85;78.99
12973;BME280;6551;51.056;9.466;2023-04-01T02:28:00;95669.88;;;11.96;78.62
12973;BME280;6551;51.056;9.466;2023-04-01T02:30:33;95687.09;;;11.59;78.21
12973;BME280;6551;51.056;9.466;2023-04-01T02:33:01;95667.81;;;11.78;78.00
12973;BME280;6551;51.056;9.466;2023-04-01T02:35:30;95674.25;;;11.77;78.44
12973;BME280;6551;51.056;9.466;2023-04-01T02:37:59;95676.91;;;11.77;78.20
12973;BME280;6551;51.056;9.466;2023-04-01T02:40:25;95678.00;;;11.65;78.91
12973;BME280;6551;51.056;9.466;2023-04-01T02:42:51;95673.97;;;11.78;77.99
12973;BME280;6551;51.056;9.466;2023-04-01T02:45:18;95670.50;;;11.83;78.24
12973;BME280;6551;51.056;9.466;2023-04-01T02:47:46;95680.69;;;12.14;77.70
12973;BME280;6551;51.056;9.466;2023-04-01T02:50:11;95692.13;;;11.71;78.04
12973;BME280;6551;51.056;9.466;2023-04-01T02:52:37;95685.38;;;11.94;77.97
12973;BME280;6551;51.056;9.466;2023-04-01T02:55:05;95689.34;;;11.96;78.17
12973;BME280;6551;51.056;9.466;2023-04-01T02:57:31;95681.84;;;11.98;77.67
12973;BME280;6551;51.056;9.466;2023-04-01T02:59:58;95691.00;;;11.87;77.37
12973;BME280;6551;51.056;9.466;2023-04-01T03:02:24;95683.88;;;12.16;76.69
12973;BME280;6551;51.056;9.466;2023-04-01T03:04:51;95674.59;;;12.09;76.96
12973;BME280;6551;51.056;9.466;2023-04-01T03:07:17;95679.44;;;11.97;76.97
12973;BME280;6551;51.056;9.466;2023-04-01T03:09:43;95674.50;;;11.75;77.39
12973;BME280;6551;51.056;9.466;2023-04-01T03:12:09;95673.13;;;11.88;77.28
12973;BME280;6551;51.056;9.466;2023-04-01T03:14:35;95682.94;;;11.92;77.21
12973;BME280;6551;51.056;9.466;2023-04-01T03:17:01;95675.28;;;11.81;77.55
12973;BME280;6551;51.056;9.466;2023-04-01T03:19:28;95673.84;;;11.98;77.70
12973;BME280;6551;51.056;9.466;2023-04-01T03:21:54;95688.00;;;11.99;77.62
12973;BME280;6551;51.056;9.466;2023-04-01T03:24:21;95673.00;;;12.42;76.63
12973;BME280;6551;51.056;9.466;2023-04-01T03:26:47;95674.38;;;12.39;76.43
12973;BME280;6551;51.056;9.466;2023-04-01T03:29:12;95679.44;;;12.41;75.64
12973;BME280;6551;51.056;9.466;2023-04-01T03:31:41;95688.56;;;12.35;75.78
12973;BME280;6551;51.056;9.466;2023-04-01T03:34:07;95676.13;;;12.20;76.05
12973;BME280;6551;51.056;9.466;2023-04-01T03:36:34;95685.19;;;12.19;76.60
12973;BME280;6551;51.056;9.466;2023-04-01T03:39:01;95698.00;;;12.17;77.65
12973;BME280;6551;51.056;9.466;2023-04-01T03:41:28;95691.72;;;11.98;78.42
12973;BME280;6551;51.056;9.466;2023-04-01T03:43:54;95690.53;;;11.65;78.28
12973;BME280;6551;51.056;9.466;2023-04-01T03:46:21;95688.31;;;11.87;78.30
12973;BME280;6551;51.056;9.466;2023-04-01T03:48:49;95674.41;;;11.95;77.99
12973;BME280;6551;51.056;9.466;2023-04-01T03:51:16;95685.06;;;11.95;77.83
12973;BME280;6551;51.056;9.466;2023-04-01T03:53:42;95671.34;;;11.58;78.14
12973;BME280;6551;51.056;9.466;2023-04-01T03:56:09;95700.13;;;12.20;77.26
12973;BME280;6551;51.056;9.466;2023-04-01T03:58:36;95694.97;;;11.90;77.32
12973;BME280;6551;51.056;9.466;2023-04-01T04:01:22;95673.44;;;12.20;77.01
12973;BME280;6551;51.056;9.466;2023-04-01T04:03:50;95687.78;;;11.90;77.99
12973;BME280;6551;51.056;9.466;2023-04-01T04:06:18;95683.47;;;12.33;76.32
12973;BME280;6551;51.056;9.466;2023-04-01T04:08:46;95685.41;;;12.61;75.70
12973;BME280;6551;51.056;9.466;2023-04-01T04:11:12;95680.53;;;11.96;77.03
12973;BME280;6551;51.056;9.466;2023-04-01T04:13:38;95694.72;;;11.86;77.45
12973;BME280;6551;51.056;9.466;2023-04-01T04:16:04;95696.88;;;12.28;76.06
12973;BME280;6551;51.056;9.466;2023-04-01T04:18:32;95691.84;;;12.21;75.67
12973;BME280;6551;51.056;9.466;2023-04-01T04:20:59;95697.59;;;12.39;75.95
12973;BME280;6551;51.056;9.466;2023-04-01T04:23:24;95698.19;;;12.30;75.18
12973;BME280;6551;51.056;9.466;2023-04-01T04:26:10;95703.34;;;12.56;74.65
12973;BME280;6551;51.056;9.466;2023-04-01T04:28:38;95695.59;;;11.61;76.43
12973;BME280;6551;51.056;9.466;2023-04-01T04:31:05;95688.13;;;11.63;76.59
12973;BME280;6551;51.056;9.466;2023-04-01T04:33:34;95707.72;;;11.29;78.04
12973;BME280;6551;51.056;9.466;2023-04-01T04:36:02;95694.66;;;11.22;79.03
12973;BME280;6551;51.056;9.466;2023-04-01T04:38:30;95704.03;;;11.09;79.00
12973;BME280;6551;51.056;9.466;2023-04-01T04:40:56;95697.00;;;11.49;78.17
12973;BME280;6551;51.056;9.466;2023-04-01T04:43:23;95697.88;;;11.29;78.20
12973;BME280;6551;51.056;9.466;2023-04-01T04:45:51;95699.94;;;11.42;77.74
12973;BME280;6551;51.056;9.466;2023-04-01T04:48:19;95701.81;;;11.42;78.21
12973;BME280;6551;51.056;9.466;2023-04-01T04:50:50;95707.25;;;10.16;80.64
12973;BME280;6551;51.056;9.466;2023-04-01T04:53:18;95710.38;;;9.97;83.55
12973;BME280;6551;51.056;9.466;2023-04-01T04:55:50;95704.03;;;10.14;83.54
12973;BME280;6551;51.056;9.466;2023-04-01T04:58:19;95698.16;;;10.02;84.05
12973;BME280;6551;51.056;9.466;2023-04-01T05:00:46;95712.22;;;9.92;84.34
12973;BME280;6551;51.056;9.466;2023-04-01T05:03:12;95700.47;;;9.78;84.83
12973;BME280;6551;51.056;9.466;2023-04-01T05:05:39;95715.44;;;10.04;84.51
12973;BME280;6551;51.056;9.466;2023-04-01T05:08:05;95705.31;;;9.91;84.79
12973;BME280;6551;51.056;9.466;2023-04-01T05:10:34;95717.56;;;10.02;84.52
12973;BME280;6551;51.056;9.466;2023-04-01T05:13:00;95702.34;;;9.77;85.13
12973;BME280;6551;51.056;9.466;2023-04-01T05:15:25;95715.91;;;9.86;84.99
12973;BME280;6551;51.056;9.466;2023-04-01T05:17:51;95720.97;;;9.82;85.06
12973;BME280;6551;51.056;9.466;2023-04-01T05:20:18;95709.28;;;9.88;85.20
12973;BME280;6551;51.056;9.466;2023-04-01T05:22:43;95709.56;;;9.92;84.68
12973;BME280;6551;51.056;9.466;2023-04-01T05:25:09;95697.34;;;9.96;84.81
12973;BME280;6551;51.056;9.466;2023-04-01T05:27:35;95714.13;;;10.02;84.97
12973;BME280;6551;51.056;9.466;2023-04-01T05:30:02;95720.72;;;9.94;85.33
12973;BME280;6551;51.056;9.466;2023-04-01T05:32:30;95708.81;;;10.07;84.82
12973;BME280;6551;51.056;9.466;2023-04-01T05:34:56;95714.41;;;10.10;84.63
12973;BME280;6551;51.056;9.466;2023-04-01T05:37:22;95717.63;;;10.22;84.17
12973;BME280;6551;51.056;9.466;2023-04-01T05:39:49;95703.50;;;10.12;85.03
12973;BME280;6551;51.056;9.466;2023-04-01T05:42:16;95713.31;;;10.06;84.84
12973;BME280;6551;51.056;9.466;2023-04-01T05:44:43;95708.53;;;10.03;84.76
12973;BME280;6551;51.056;9.466;2023-04-01T05:47:10;95710.38;;;9.97;84.81
12973;BME280;6551;51.056;9.466;2023-04-01T05:49:35;95724.00;;;10.16;84.47
12973;BME280;6551;51.056;9.466;2023-04-01T05:52:01;95710.16;;;10.14;84.90
12973;BME280;6551;51.056;9.466;2023-04-01T05:54:28;95717.63;;;10.27;84.35
12973;BME280;6551;51.056;9.466;2023-04-01T05:56:54;95712.75;;;9.94;85.36
12973;BME280;6551;51.056;9.466;2023-04-01T05:59:21;95727.41;;;10.02;86.13
12973;BME280;6551;51.056;9.466;2023-04-01T06:01:48;95686.69;;;9.86;86.53
12973;BME280;6551;51.056;9.466;2023-04-01T06:04:15;95724.97;;;9.90;86.32
12973;BME280;6551;51.056;9.466;2023-04-01T06:06:41;95715.38;;;9.79;86.82
12973;BME280;6551;51.056;9.466;2023-04-01T06:09:17;95722.09;;;9.96;86.28
12973;BME280;6551;51.056;9.466;2023-04-01T06:18:47;95718.06;;;9.94;86.07
12973;BME280;6551;51.056;9.466;2023-04-01T06:27:44;95712.28;;;10.12;85.61
12973;BME280;6551;51.056;9.466;2023-04-01T06:30:34;95720.03;;;10.34;84.97
12973;BME280;6551;51.056;9.466;2023-04-01T06:44:41;95721.03;;;10.08;85.77
12973;BME280;6551;51.056;9.466;2023-04-01T06:51:17;95717.63;;;10.27;85.18
12973;BME280;6551;51.056;9.466;2023-04-01T06:56:28;95736.81;;;10.39;84.78
12973;BME280;6551;51.056;9.466;2023-04-01T06:58:58;95716.31;;;10.45;84.35
12973;BME280;6551;51.056;9.466;2023-04-01T07:01:42;95722.97;;;10.37;84.64
12973;BME280;6551;51.056;9.466;2023-04-01T07:04:33;95722.16;;;10.47;84.63
12973;BME280;6551;51.056;9.466;2023-04-01T07:09:40;95724.84;;;10.42;84.40
12973;BME280;6551;51.056;9.466;2023-04-01T07:15:01;95728.31;;;10.73;83.62
12973;BME280;6551;51.056;9.466;2023-04-01T07:17:33;95732.28;;;10.45;84.10
12973;BME280;6551;51.056;9.466;2023-04-01T07:20:13;95741.06;;;10.40;84.58
12973;BME280;6551;51.056;9.466;2023-04-01T07:22:52;95731.50;;;10.70;84.20
12973;BME280;6551;51.056;9.466;2023-04-01T07:25:29;95738.94;;;10.68;83.89
12973;BME280;6551;51.056;9.466;2023-04-01T07:28:06;95730.69;;;10.94;83.42
12973;BME280;6551;51.056;9.466;2023-04-01T07:34:35;95731.50;;;10.85;82.82
12973;BME280;6551;51.056;9.466;2023-04-01T07:37:22;95738.69;;;10.74;83.28
12973;BME280;6551;51.056;9.466;2023-04-01T07:43:23;95738.69;;;10.84;83.60
12973;BME280;6551;51.056;9.466;2023-04-01T07:46:42;95748.00;;;10.92;82.21
12973;BME280;6551;51.056;9.466;2023-04-01T07:50:10;95743.75;;;10.96;81.68
12973;BME280;6551;51.056;9.466;2023-04-01T07:53:16;95745.88;;;10.84;82.42
12973;BME280;6551;51.056;9.466;2023-04-01T07:59:24;95763.16;;;11.11;81.53
12973;BME280;6551;51.056;9.466;2023-04-01T08:01:38;95758.34;;;11.08;81.66
12973;BME280;6551;51.056;9.466;2023-04-01T08:04:56;95766.34;;;11.19;81.62
12973;BME280;6551;51.056;9.466;2023-04-01T08:08:10;95759.94;;;11.30;81.33
12973;BME280;6551;51.056;9.466;2023-04-01T08:11:15;95760.75;;;11.20;81.29
12973;BME280;6551;51.056;9.466;2023-04-01T08:17:03;95777.25;;;11.32;80.99
12973;BME280;6551;51.056;9.466;2023-04-01T08:22:30;95770.53;;;11.50;80.61
12973;BME280;6551;51.056;9.466;2023-04-01T08:25:02;95763.06;;;11.47;79.78
12973;BME280;6551;51.056;9.466;2023-04-01T08:27:43;95777.72;;;11.59;80.16
12973;BME280;6551;51.056;9.466;2023-04-01T08:30:49;95768.38;;;11.77;79.43
12973;BME280;6551;51.056;9.466;2023-04-01T08:33:30;95764.81;;;11.92;80.04
12973;BME280;6551;51.056;9.466;2023-04-01T08:36:31;95781.09;;;11.95;79.31
12973;BME280;6551;51.056;9.466;2023-04-01T08:39:20;95774.31;;;12.18;78.90
12973;BME280;6551;51.056;9.466;2023-04-01T08:42:31;95775.16;;;12.08;77.97
12973;BME280;6551;51.056;9.466;2023-04-01T08:58:29;95785.66;;;11.90;78.09
12973;BME280;6551;51.056;9.466;2023-04-01T09:13:04;95789.13;;;11.85;79.00
12973;BME280;6551;51.056;9.466;2023-04-01T09:16:24;95790.38;;;12.03;78.64
12973;BME280;6551;51.056;9.466;2023-04-01T09:22:37;95796.63;;;11.58;79.43
12973;BME280;6551;51.056;9.466;2023-04-01T09:31:19;95803.09;;;11.37;81.16
12973;BME280;6551;51.056;9.466;2023-04-01T09:34:19;95811.34;;;11.35;81.94
12973;BME280;6551;51.056;9.466;2023-04-01T09:37:30;95801.75;;;11.49;81.05
12973;BME280;6551;51.056;9.466;2023-04-01T09:43:26;95806.28;;;11.44;82.25
12973;BME280;6551;51.056;9.466;2023-04-01T10:23:20;95822.47;;;11.83;83.66
12973;BME280;6551;51.056;9.466;2023-04-01T10:26:16;95829.03;;;12.15;82.05
12973;BME280;6551;51.056;9.466;2023-04-01T10:41:27;95822.69;;;12.94;77.84
12973;BME280;6551;51.056;9.466;2023-04-01T10:51:10;95815.78;;;13.27;77.19
12973;BME280;6551;51.056;9.466;2023-04-01T10:54:30;95826.59;;;13.12;76.46
12973;BME280;6551;51.056;9.466;2023-04-01T11:22:15;95838.19;;;12.53;82.18
12973;BME280;6551;51.056;9.466;2023-04-01T11:34:14;95846.16;;;12.97;81.31
12973;BME280;6551;51.056;9.466;2023-04-01T11:37:44;95845.06;;;13.03;82.43
12973;BME280;6551;51.056;9.466;2023-04-01T11:43:36;95845.13;;;13.89;78.48
12973;BME280;6551;51.056;9.466;2023-04-01T11:46:16;95843.13;;;13.76;78.29
12973;BME280;6551;51.056;9.466;2023-04-01T11:49:41;95840.63;;;14.08;77.92
12973;BME280;6551;51.056;9.466;2023-04-01T11:55:58;95854.56;;;13.53;77.97
12973;BME280;6551;51.056;9.466;2023-04-01T11:58:57;95863.16;;;13.79;78.73
12973;BME280;6551;51.056;9.466;2023-04-01T12:05:13;95871.44;;;13.54;79.31
12973;BME280;6551;51.056;9.466;2023-04-01T12:20:41;95884.66;;;14.21;78.05
12973;BME280;6551;51.056;9.466;2023-04-01T12:39:13;95904.59;;;13.14;82.39
12973;BME280;6551;51.056;9.466;2023-04-01T13:09:43;95915.03;;;12.61;86.36
12973;BME280;6551;51.056;9.466;2023-04-01T13:12:46;95932.66;;;12.52;86.28
12973;BME280;6551;51.056;9.466;2023-04-01T13:24:50;95936.19;;;12.43;88.20
12973;BME280;6551;51.056;9.466;2023-04-01T13:27:42;95932.91;;;12.61;87.31
12973;BME280;6551;51.056;9.466;2023-04-01T13:34:13;95937.69;;;12.69;86.56
12973;BME280;6551;51.056;9.466;2023-04-01T13:46:27;95948.50;;;12.28;87.70
12973;BME280;6551;51.056;9.466;2023-04-01T14:01:08;95950.97;;;12.84;84.75
12973;BME280;6551;51.056;9.466;2023-04-01T14:08:11;95946.16;;;12.86;82.82
12973;BME280;6551;51.056;9.466;2023-04-01T14:10:59;95951.44;;;13.01;84.05
12973;BME280;6551;51.056;9.466;2023-04-01T14:14:18;95948.44;;;13.13;83.35
12973;BME280;6551;51.056;9.466;2023-04-01T14:16:59;95948.41;;;13.18;83.03
12973;BME280;6551;51.056;9.466;2023-04-01T14:22:43;95950.88;;;14.11;80.12
12973;BME280;6551;51.056;9.466;2023-04-01T14:25:46;95958.97;;;14.34;79.06
12973;BME280;6551;51.056;9.466;2023-04-01T14:37:30;95966.09;;;14.15;79.59
12973;BME280;6551;51.056;9.466;2023-04-01T14:46:09;95968.53;;;14.64;77.97
12973;BME280;6551;51.056;9.466;2023-04-01T14:49:20;95968.47;;;14.69;77.38
12973;BME280;6551;51.056;9.466;2023-04-01T14:51:40;95965.63;;;14.60;77.09
12973;BME280;6551;51.056;9.466;2023-04-01T14:54:20;95968.00;;;14.86;76.14
12973;BME280;6551;51.056;9.466;2023-04-01T14:57:14;95967.16;;;14.90;76.88
12973;BME280;6551;51.056;9.466;2023-04-01T15:00:14;95981.13;;;14.87;76.19
12973;BME280;6551;51.056;9.466;2023-04-01T15:12:41;95997.66;;;14.94;77.59
12973;BME280;6551;51.056;9.466;2023-04-01T15:18:09;95998.28;;;14.05;80.11
12973;BME280;6551;51.056;9.466;2023-04-01T15:20:45;95999.50;;;14.51;79.94
12973;BME280;6551;51.056;9.466;2023-04-01T15:23:36;96004.06;;;14.75;78.45
12973;BME280;6551;51.056;9.466;2023-04-01T15:29:00;96013.22;;;14.92;77.82
12973;BME280;6551;51.056;9.466;2023-04-01T15:31:40;96017.91;;;14.82;77.63
12973;BME280;6551;51.056;9.466;2023-04-01T15:37:42;96019.94;;;13.41;81.74
12973;BME280;6551;51.056;9.466;2023-04-01T15:40:49;96030.38;;;13.37;83.16
12973;BME280;6551;51.056;9.466;2023-04-01T15:43:42;96027.84;;;13.02;84.31
12973;BME280;6551;51.056;9.466;2023-04-01T15:46:41;96037.50;;;12.93;84.67
12973;BME280;6551;51.056;9.466;2023-04-01T15:49:46;96035.44;;;12.65;86.12
12973;BME280;6551;51.056;9.466;2023-04-01T15:52:43;96047.41;;;12.87;86.52
12973;BME280;6551;51.056;9.466;2023-04-01T15:55:48;96044.25;;;12.70;86.63
12973;BME280;6551;51.056;9.466;2023-04-01T16:01:44;96048.03;;;12.54;87.03
12973;BME280;6551;51.056;9.466;2023-04-01T16:05:00;96063.06;;;13.14;85.92
12973;BME280;6551;51.056;9.466;2023-04-01T16:10:44;96059.84;;;13.71;81.90
12973;BME280;6551;51.056;9.466;2023-04-01T16:16:39;96064.66;;;14.08;80.26
12973;BME280;6551;51.056;9.466;2023-04-01T16:22:35;96077.16;;;14.18;80.25
12973;BME280;6551;51.056;9.466;2023-04-01T16:25:39;96080.66;;;14.18;79.70
12973;BME280;6551;51.056;9.466;2023-04-01T16:28:42;96076.69;;;14.44;79.39
12973;BME280;6551;51.056;9.466;2023-04-01T16:31:46;96087.16;;;14.70;78.56
12973;BME280;6551;51.056;9.466;2023-04-01T16:37:50;96086.75;;;13.36;82.94
12973;BME280;6551;51.056;9.466;2023-04-01T16:46:44;96096.50;;;14.10;81.67
12973;BME280;6551;51.056;9.466;2023-04-01T16:52:12;96107.84;;;14.35;79.93
12973;BME280;6551;51.056;9.466;2023-04-01T16:55:33;96114.66;;;14.80;78.78
12973;BME280;6551;51.056;9.466;2023-04-01T16:57:59;96116.78;;;13.18;82.14
12973;BME280;6551;51.056;9.466;2023-04-01T17:00:48;96113.34;;;12.92;84.97
12973;BME280;6551;51.056;9.466;2023-04-01T17:03:30;96119.25;;;12.84;86.62
12973;BME280;6551;51.056;9.466;2023-04-01T17:09:07;96126.97;;;12.96;86.38
12973;BME280;6551;51.056;9.466;2023-04-01T17:12:25;96134.47;;;12.83;86.54
12973;BME280;6551;51.056;9.466;2023-04-01T17:18:20;96152.63;;;12.91;86.98
12973;BME280;6551;51.056;9.466;2023-04-01T17:21:13;96148.91;;;12.77;87.18
12973;BME280;6551;51.056;9.466;2023-04-01T17:23:51;96144.66;;;12.66;87.61
12973;BME280;6551;51.056;9.466;2023-04-01T17:26:45;96160.66;;;12.86;86.99
12973;BME280;6551;51.056;9.466;2023-04-01T17:45:30;96188.41;;;13.06;85.72
12973;BME280;6551;51.056;9.466;2023-04-01T17:47:58;96185.25;;;12.73;85.95
12973;BME280;6551;51.056;9.466;2023-04-01T17:59:43;96207.41;;;12.84;86.50
12973;BME280;6551;51.056;9.466;2023-04-01T18:02:38;96211.66;;;12.75;86.93
12973;BME280;6551;51.056;9.466;2023-04-01T18:06:33;96224.22;;;13.05;85.72
12973;BME280;6551;51.056;9.466;2023-04-01T18:11:58;96234.38;;;12.57;86.61
12973;BME280;6551;51.056;9.466;2023-04-01T18:14:56;96233.56;;;12.52;86.89
12973;BME280;6551;51.056;9.466;2023-04-01T18:17:32;96231.97;;;12.41;87.44
12973;BME280;6551;51.056;9.466;2023-04-01T18:20:57;96244.75;;;12.39;87.72
12973;BME280;6551;51.056;9.466;2023-04-01T18:23:43;96240.75;;;12.41;87.38
12973;BME280;6551;51.056;9.466;2023-04-01T18:26:41;96243.41;;;12.31;87.88
12973;BME280;6551;51.056;9.466;2023-04-01T18:29:54;96255.66;;;12.22;88.36
12973;BME280;6551;51.056;9.466;2023-04-01T18:32:55;96260.16;;;12.06;89.16
12973;BME280;6551;51.056;9.466;2023-04-01T18:36:09;96261.84;;;11.65;90.30
12973;BME280;6551;51.056;9.466;2023-04-01T18:38:54;96265.72;;;11.90;90.25
12973;BME280;6551;51.056;9.466;2023-04-01T18:44:50;96272.56;;;11.76;90.87
12973;BME280;6551;51.056;9.466;2023-04-01T18:53:45;96293.63;;;11.72;91.48
12973;BME280;6551;51.056;9.466;2023-04-01T18:56:36;96296.22;;;11.67;91.69
12973;BME280;6551;51.056;9.466;2023-04-01T18:59:32;96310.19;;;11.74;92.33
12973;BME280;6551;51.056;9.466;2023-04-01T19:05:17;96318.75;;;11.86;92.07
12973;BME280;6551;51.056;9.466;2023-04-01T19:07:55;96317.47;;;11.94;91.77
12973;BME280;6551;51.056;9.466;2023-04-01T19:14:11;96336.34;;;11.82;92.21
12973;BME280;6551;51.056;9.466;2023-04-01T19:23:22;96343.53;;;11.77;91.67
12973;BME280;6551;51.056;9.466;2023-04-01T19:25:59;96347.25;;;11.76;91.53
12973;BME280;6551;51.056;9.466;2023-04-01T19:37:40;96349.56;;;11.67;91.70
12973;BME280;6551;51.056;9.466;2023-04-01T19:40:38;96361.03;;;11.67;92.00
12973;BME280;6551;51.056;9.466;2023-04-01T19:47:23;96367.50;;;11.71;91.75
12973;BME280;6551;51.056;9.466;2023-04-01T19:54:10;96376.97;;;11.57;91.91
12973;BME280;6551;51.056;9.466;2023-04-01T19:57:03;96381.00;;;11.65;91.96
12973;BME280;6551;51.056;9.466;2023-04-01T20:00:05;96387.50;;;11.74;91.67
12973;BME280;6551;51.056;9.466;2023-04-01T20:03:01;96391.34;;;11.93;90.99
12973;BME280;6551;51.056;9.466;2023-04-01T20:06:14;96392.69;;;11.91;90.57
12973;BME280;6551;51.056;9.466;2023-04-01T20:14:40;96413.59;;;11.72;91.45
12973;BME280;6551;51.056;9.466;2023-04-01T20:17:42;96410.06;;;11.66;92.03
12973;BME280;6551;51.056;9.466;2023-04-01T20:25:30;96427.25;;;11.76;92.03
12973;BME280;6551;51.056;9.466;2023-04-01T20:31:43;96434.69;;;12.10;90.28
12973;BME280;6551;51.056;9.466;2023-04-01T20:34:43;96439.53;;;12.18;90.13
12973;BME280;6551;51.056;9.466;2023-04-01T20:37:44;96437.59;;;12.09;89.71
12973;BME280;6551;51.056;9.466;2023-04-01T20:40:38;96452.78;;;12.08;89.88
12973;BME280;6551;51.056;9.466;2023-04-01T20:46:39;96450.88;;;11.99;90.66
12973;BME280;6551;51.056;9.466;2023-04-01T20:57:58;96462.94;;;12.06;89.07
12973;BME280;6551;51.056;9.466;2023-04-01T21:00:57;96468.41;;;12.26;87.69
12973;BME280;6551;51.056;9.466;2023-04-01T21:10:08;96481.09;;;13.13;82.22
12973;BME280;6551;51.056;9.466;2023-04-01T21:18:49;96495.03;;;13.51;81.34
12973;BME280;6551;51.056;9.466;2023-04-01T21:21:56;96488.63;;;13.67;80.34
12973;BME280;6551;51.056;9.466;2023-04-01T21:33:50;96500.69;;;14.04;79.47
12973;BME280;6551;51.056;9.466;2023-04-01T21:39:43;96517.25;;;14.42;78.29
12973;BME280;6551;51.056;9.466;2023-04-01T21:42:35;96525.28;;;14.47;77.43
12973;BME280;6551;51.056;9.466;2023-04-01T21:58:26;96541.63;;;14.50;76.04
12973;BME280;6551;51.056;9.466;2023-04-01T22:01:08;96546.97;;;14.20;77.21
12973;BME280;6551;51.056;9.466;2023-04-01T22:07:23;96549.88;;;14.79;76.53
12973;BME280;6551;51.056;9.466;2023-04-01T22:19:47;96568.34;;;13.55;81.32
12973;BME280;6551;51.056;9.466;2023-04-01T22:23:01;96576.97;;;13.05;82.92
12973;BME280;6551;51.056;9.466;2023-04-01T22:26:04;96582.91;;;13.17;82.75
12973;BME280;6551;51.056;9.466;2023-04-01T22:35:05;96580.09;;;12.91;82.43
12973;BME280;6551;51.056;9.466;2023-04-01T22:41:22;96591.47;;;12.72;83.26
12973;BME280;6551;51.056;9.466;2023-04-01T22:43:47;96598.94;;;12.70;83.56
12973;BME280;6551;51.056;9.466;2023-04-01T22:46:56;96599.53;;;12.77;83.44
12973;BME280;6551;51.056;9.466;2023-04-01T22:49:38;96596.03;;;12.71;83.85
12973;BME280;6551;51.056;9.466;2023-04-01T22:52:30;96604.94;;;12.92;83.64
12973;BME280;6551;51.056;9.466;2023-04-01T22:55:27;96606.09;;;13.06;83.52
12973;BME280;6551;51.056;9.466;2023-04-01T22:58:05;96605.91;;;12.71;83.70
12973;BME280;6551;51.056;9.466;2023-04-01T23:00:44;96609.38;;;12.71;84.39
12973;BME280;6551;51.056;9.466;2023-04-01T23:05:59;96619.75;;;12.68;84.27
12973;BME280;6551;51.056;9.466;2023-04-01T23:08:53;96618.66;;;12.64;84.24
12973;BME280;6551;51.056;9.466;2023-04-01T23:11:49;96622.75;;;12.40;85.32
12973;BME280;6551;51.056;9.466;2023-04-01T23:23:59;96641.78;;;12.85;84.23